Time,TemperatureF,DewpointF,PressureIn,WindDirection,WindDirectionDegrees,WindSpeedMPH,WindSpeedGustMPH,Humidity,HourlyPrecipIn,Conditions,Clouds,dailyrainin,SoftwareType,DateUTC
2013-11-04 00:05:00,25.8,21.0,30.43,NE,45,0.0,-999.0,83,-99.99,,,0.00,weatherlink.com 1.10,2013-11-04 05:05:00,
2013-11-04 00:20:00,25.7,21.0,30.43,NE,45,0.0,-999.0,83,-99.99,,,0.00,weatherlink.com 1.10,2013-11-04 05:20:00,
2013-11-04 00:35:00,25.7,21.0,30.44,NNE,20,0.0,-999.0,83,-99.99,,,0.00,weatherlink.com 1.10,2013-11-04 05:35:00,
2013-11-04 00:50:00,25.8,21.0,30.44,East,85,0.0,-999.0,83,-99.99,,,0.00,weatherlink.com 1.10,2013-11-04 05:50:00,
2013-11-04 01:05:00,25.8,21.0,30.45,East,85,0.0,-999.0,82,-99.99,,,0.00,weatherlink.com 1.10,2013-11-04 06:05:00,
2013-11-04 01:20:00,25.6,21.0,30.45,East,85,0.0,-999.0,82,-99.99,,,0.00,weatherlink.com 1.10,2013-11-04 06:20:00,
2013-11-04 01:35:00,25.1,20.0,30.46,East,85,0.0,-999.0,82,-99.99,,,0.00,weatherlink.com 1.10,2013-11-04 06:35:00,
2013-11-04 01:50:00,25.0,21.0,30.46,East,85,0.0,-999.0,83,-99.99,,,0.00,weatherlink.com 1.10,2013-11-04 06:50:00,
2013-11-04 02:05:00,24.7,20.0,30.46,East,85,0.0,-999.0,83,-99.99,,,0.00,weatherlink.com 1.10,2013-11-04 07:05:00,
2013-11-04 02:20:00,24.5,20.0,30.46,East,85,0.0,-999.0,83,-99.99,,,0.00,weatherlink.com 1.10,2013-11-04 07:20:00,
2013-11-04 02:35:00,24.5,20.0,30.46,East,85,0.0,-999.0,83,-99.99,,,0.00,weatherlink.com 1.10,2013-11-04 07:35:00,
2013-11-04 02:50:00,24.5,20.0,30.46,East,85,0.0,-999.0,83,-99.99,,,0.00,weatherlink.com 1.10,2013-11-04 07:50:00,
2013-11-04 03:05:00,24.7,20.0,30.46,East,85,0.0,-999.0,82,-99.99,,,0.00,weatherlink.com 1.10,2013-11-04 08:05:00,
2013-11-04 03:20:00,24.5,20.0,30.46,East,85,0.0,-999.0,82,-99.99,,,0.00,weatherlink.com 1.10,2013-11-04 08:20:00,
2013-11-04 03:35:00,24.4,20.0,30.47,East,85,0.0,-999.0,82,-99.99,,,0.00,weatherlink.com 1.10,2013-11-04 08:35:00,
2013-11-04 03:50:00,23.9,20.0,30.47,East,85,0.0,-999.0,83,-99.99,,,0.00,weatherlink.com 1.10,2013-11-04 08:50:00,
2013-11-04 04:05:00,23.8,19.0,30.46,East,85,0.0,-999.0,83,-99.99,,,0.00,weatherlink.com 1.10,2013-11-04 09:05:00,
2013-11-04 04:20:00,23.9,20.0,30.46,East,85,0.0,-999.0,84,-99.99,,,0.00,weatherlink.com 1.10,2013-11-04 09:20:00,
2013-11-04 04:35:00,24.4,19.0,30.48,East,86,0.0,-999.0,81,-99.99,,,0.00,weatherlink.com 1.10,2013-11-04 09:35:00,
2013-11-04 04:50:00,24.7,19.0,30.48,ENE,72,0.0,-999.0,80,-99.99,,,0.00,weatherlink.com 1.10,2013-11-04 09:50:00,
2013-11-04 05:05:00,25.1,19.0,30.49,ENE,61,0.0,-999.0,77,-99.99,,,0.00,weatherlink.com 1.10,2013-11-04 10:05:00,
2013-11-04 05:20:00,25.3,19.0,30.48,East,100,0.0,-999.0,76,-99.99,,,0.00,weatherlink.com 1.10,2013-11-04 10:20:00,
2013-11-04 05:35:00,25.7,18.0,30.50,SE,126,1.0,-999.0,74,-99.99,,,0.00,weatherlink.com 1.10,2013-11-04 10:35:00,
2013-11-04 05:50:00,26.4,18.0,30.51,SE,124,0.0,-999.0,71,-99.99,,,0.00,weatherlink.com 1.10,2013-11-04 10:50:00,
2013-11-04 06:05:00,26.7,18.0,30.50,SE,124,0.0,-999.0,70,-99.99,,,0.00,weatherlink.com 1.10,2013-11-04 11:05:00,
2013-11-04 06:20:00,26.4,18.0,30.51,East,79,0.0,-999.0,71,-99.99,,,0.00,weatherlink.com 1.10,2013-11-04 11:20:00,
2013-11-04 06:35:00,26.1,18.0,30.52,SE,141,0.0,-999.0,71,-99.99,,,0.00,weatherlink.com 1.10,2013-11-04 11:35:00,
2013-11-04 06:50:00,26.1,18.0,30.50,ENE,61,0.0,-999.0,72,-99.99,,,0.00,weatherlink.com 1.10,2013-11-04 11:50:00,
2013-11-04 07:05:00,25.8,18.0,30.52,ESE,114,0.0,-999.0,73,-99.99,,,0.00,weatherlink.com 1.10,2013-11-04 12:05:00,
2013-11-04 07:20:00,26.1,18.0,30.52,ENE,72,0.0,-999.0,71,-99.99,,,0.00,weatherlink.com 1.10,2013-11-04 12:20:00,
2013-11-04 07:35:00,26.9,19.0,30.52,ESE,120,0.0,-999.0,71,-99.99,,,0.00,weatherlink.com 1.10,2013-11-04 12:35:00,
2013-11-04 07:50:00,27.6,19.0,30.52,SE,133,1.0,-999.0,70,-99.99,,,0.00,weatherlink.com 1.10,2013-11-04 12:50:00,
2013-11-04 08:05:00,28.4,19.0,30.53,East,92,2.0,-999.0,68,-99.99,,,0.00,weatherlink.com 1.10,2013-11-04 13:05:00,
2013-11-04 08:20:00,29.1,19.0,30.54,SE,124,5.0,-999.0,66,-99.99,,,0.00,weatherlink.com 1.10,2013-11-04 13:20:00,
2013-11-04 08:35:00,29.8,18.0,30.53,SE,127,7.0,-999.0,63,-99.99,,,0.00,weatherlink.com 1.10,2013-11-04 13:35:00,
2013-11-04 08:50:00,30.3,18.0,30.53,ESE,114,2.0,-999.0,61,-99.99,,,0.00,weatherlink.com 1.10,2013-11-04 13:50:00,
2013-11-04 09:05:00,30.9,18.0,30.52,ENE,73,3.0,-999.0,58,-99.99,,,0.00,weatherlink.com 1.10,2013-11-04 14:05:00,
2013-11-04 09:20:00,31.6,18.0,30.52,ESE,106,0.0,-999.0,57,-99.99,,,0.00,weatherlink.com 1.10,2013-11-04 14:20:00,
2013-11-04 09:35:00,32.2,17.0,30.52,East,93,1.0,-999.0,54,-99.99,,,0.00,weatherlink.com 1.10,2013-11-04 14:35:00,
2013-11-04 09:50:00,33.4,17.0,30.51,ESE,102,3.0,-999.0,51,-99.99,,,0.00,weatherlink.com 1.10,2013-11-04 14:50:00,
2013-11-04 10:20:00,34.1,18.0,30.50,SE,126,1.0,-999.0,51,-99.99,,,0.00,weatherlink.com 1.10,2013-11-04 15:20:00,
2013-11-04 10:50:00,34.4,16.0,30.50,East,97,2.0,-999.0,47,-99.99,,,0.00,weatherlink.com 1.10,2013-11-04 15:50:00,
2013-11-04 11:05:00,34.9,17.0,30.49,ESE,109,6.0,-999.0,48,-99.99,,,0.00,weatherlink.com 1.10,2013-11-04 16:05:00,
2013-11-04 11:21:00,35.0,15.0,30.48,East,89,0.0,-999.0,45,-99.99,,,0.00,weatherlink.com 1.10,2013-11-04 16:21:00,
2013-11-04 11:36:00,35.9,17.0,30.48,SE,145,6.0,-999.0,46,-99.99,,,0.00,weatherlink.com 1.10,2013-11-04 16:36:00,
2013-11-04 11:50:00,36.9,16.0,30.47,South,179,2.0,-999.0,43,-99.99,,,0.00,weatherlink.com 1.10,2013-11-04 16:50:00,
2013-11-04 12:05:00,37.2,17.0,30.45,East,88,0.0,-999.0,44,-99.99,,,0.00,weatherlink.com 1.10,2013-11-04 17:05:00,
2013-11-04 12:20:00,37.6,16.0,30.44,East,96,3.0,-999.0,42,-99.99,,,0.00,weatherlink.com 1.10,2013-11-04 17:20:00,
2013-11-04 12:50:00,38.6,13.0,30.45,SE,127,0.0,-999.0,35,-99.99,,,0.00,weatherlink.com 1.10,2013-11-04 17:50:00,
2013-11-04 13:05:00,39.2,14.0,30.43,ESE,123,10.0,-999.0,36,-99.99,,,0.00,weatherlink.com 1.10,2013-11-04 18:05:00,
2013-11-04 13:20:00,39.6,15.0,30.43,SSE,154,3.0,-999.0,36,-99.99,,,0.00,weatherlink.com 1.10,2013-11-04 18:20:00,
2013-11-04 13:35:00,39.8,15.0,30.43,SE,134,1.0,-999.0,36,-99.99,,,0.00,weatherlink.com 1.10,2013-11-04 18:35:00,
2013-11-04 13:50:00,39.8,14.0,30.44,East,80,0.0,-999.0,35,-99.99,,,0.00,weatherlink.com 1.10,2013-11-04 18:50:00,
2013-11-04 14:05:00,40.3,14.0,30.43,ESE,120,0.0,-999.0,34,-99.99,,,0.00,weatherlink.com 1.10,2013-11-04 19:05:00,
2013-11-04 14:20:00,40.5,14.0,30.41,South,171,6.0,-999.0,34,-99.99,,,0.00,weatherlink.com 1.10,2013-11-04 19:20:00,
2013-11-04 14:35:00,40.8,13.0,30.40,SE,136,0.0,-999.0,32,-99.99,,,0.00,weatherlink.com 1.10,2013-11-04 19:35:00,
2013-11-04 14:50:00,40.9,14.0,30.39,ENE,72,1.0,-999.0,34,-99.99,,,0.00,weatherlink.com 1.10,2013-11-04 19:50:00,
2013-11-04 15:05:00,41.1,13.0,30.39,ESE,106,0.0,-999.0,32,-99.99,,,0.00,weatherlink.com 1.10,2013-11-04 20:05:00,
2013-11-04 15:20:00,41.5,14.0,30.39,East,99,2.0,-999.0,33,-99.99,,,0.00,weatherlink.com 1.10,2013-11-04 20:20:00,
2013-11-04 15:35:00,41.5,11.0,30.39,East,85,0.0,-999.0,29,-99.99,,,0.00,weatherlink.com 1.10,2013-11-04 20:35:00,
2013-11-04 15:50:00,41.5,14.0,30.40,ENE,75,0.0,-999.0,32,-99.99,,,0.00,weatherlink.com 1.10,2013-11-04 20:50:00,
2013-11-04 16:05:00,40.9,12.0,30.39,ESE,104,3.0,-999.0,30,-99.99,,,0.00,weatherlink.com 1.10,2013-11-04 21:05:00,
2013-11-04 16:20:00,40.6,13.0,30.38,NNE,31,0.0,-999.0,32,-99.99,,,0.00,weatherlink.com 1.10,2013-11-04 21:20:00,
2013-11-04 16:35:00,40.3,15.0,30.38,East,92,0.0,-999.0,35,-99.99,,,0.00,weatherlink.com 1.10,2013-11-04 21:35:00,
2013-11-04 16:50:00,40.1,15.0,30.39,ENE,73,0.0,-999.0,36,-99.99,,,0.00,weatherlink.com 1.10,2013-11-04 21:50:00,
2013-11-04 17:05:00,39.6,15.0,30.38,ESE,112,0.0,-999.0,37,-99.99,,,0.00,weatherlink.com 1.10,2013-11-04 22:05:00,
2013-11-04 17:20:00,38.9,16.0,30.39,ESE,112,0.0,-999.0,40,-99.99,,,0.00,weatherlink.com 1.10,2013-11-04 22:20:00,
2013-11-04 17:36:00,38.0,15.0,30.39,ESE,114,0.0,-999.0,39,-99.99,,,0.00,weatherlink.com 1.10,2013-11-04 22:36:00,
2013-11-04 17:50:00,37.6,14.0,30.39,East,97,0.0,-999.0,38,-99.99,,,0.00,weatherlink.com 1.10,2013-11-04 22:50:00,
2013-11-04 18:05:00,37.9,12.0,30.39,SE,140,2.0,-999.0,34,-99.99,,,0.00,weatherlink.com 1.10,2013-11-04 23:05:00,
2013-11-04 18:21:00,37.9,12.0,30.40,ESE,109,0.0,-999.0,35,-99.99,,,0.00,weatherlink.com 1.10,2013-11-04 23:21:00,
2013-11-04 18:36:00,38.2,12.0,30.38,ESE,119,1.0,-999.0,34,-99.99,,,0.00,weatherlink.com 1.10,2013-11-04 23:36:00,
2013-11-04 18:51:00,38.0,13.0,30.38,SE,124,5.0,-999.0,36,-99.99,,,0.00,weatherlink.com 1.10,2013-11-04 23:51:00,
2013-11-04 19:06:00,37.9,13.0,30.38,SE,134,3.0,-999.0,36,-99.99,,,0.00,weatherlink.com 1.10,2013-11-05 00:06:00,
2013-11-04 19:21:00,38.2,14.0,30.38,ESE,114,4.0,-999.0,37,-99.99,,,0.00,weatherlink.com 1.10,2013-11-05 00:21:00,
2013-11-04 19:36:00,38.0,15.0,30.37,East,99,2.0,-999.0,39,-99.99,,,0.00,weatherlink.com 1.10,2013-11-05 00:36:00,
2013-11-04 19:51:00,38.0,16.0,30.37,ENE,69,2.0,-999.0,40,-99.99,,,0.00,weatherlink.com 1.10,2013-11-05 00:51:00,
2013-11-04 20:06:00,38.0,16.0,30.37,SE,127,0.0,-999.0,41,-99.99,,,0.00,weatherlink.com 1.10,2013-11-05 01:06:00,
2013-11-04 20:21:00,38.0,17.0,30.37,SE,137,0.0,-999.0,42,-99.99,,,0.00,weatherlink.com 1.10,2013-11-05 01:21:00,
2013-11-04 20:36:00,38.0,18.0,30.37,SE,140,3.0,-999.0,44,-99.99,,,0.00,weatherlink.com 1.10,2013-11-05 01:36:00,
2013-11-04 20:51:00,37.9,17.0,30.37,ESE,113,2.0,-999.0,42,-99.99,,,0.00,weatherlink.com 1.10,2013-11-05 01:51:00,
2013-11-04 21:06:00,37.8,17.0,30.36,SE,130,0.0,-999.0,43,-99.99,,,0.00,weatherlink.com 1.10,2013-11-05 02:06:00,
2013-11-04 21:21:00,37.6,17.0,30.36,SSE,148,0.0,-999.0,44,-99.99,,,0.00,weatherlink.com 1.10,2013-11-05 02:21:00,
2013-11-04 21:36:00,37.5,18.0,30.36,ESE,120,2.0,-999.0,45,-99.99,,,0.00,weatherlink.com 1.10,2013-11-05 02:36:00,
2013-11-04 21:51:00,37.3,18.0,30.36,SE,143,1.0,-999.0,46,-99.99,,,0.00,weatherlink.com 1.10,2013-11-05 02:51:00,
2013-11-04 22:06:00,37.6,18.0,30.36,SE,144,5.0,-999.0,46,-99.99,,,0.00,weatherlink.com 1.10,2013-11-05 03:06:00,
2013-11-04 22:21:00,37.9,18.0,30.36,SE,140,0.0,-999.0,45,-99.99,,,0.00,weatherlink.com 1.10,2013-11-05 03:21:00,
2013-11-04 22:36:00,37.9,19.0,30.37,SE,133,1.0,-999.0,47,-99.99,,,0.00,weatherlink.com 1.10,2013-11-05 03:36:00,
2013-11-04 22:51:00,37.9,19.0,30.37,ESE,113,0.0,-999.0,47,-99.99,,,0.00,weatherlink.com 1.10,2013-11-05 03:51:00,
2013-11-04 23:06:00,37.9,20.0,30.36,SE,141,5.0,-999.0,48,-99.99,,,0.00,weatherlink.com 1.10,2013-11-05 04:06:00,
2013-11-04 23:21:00,38.0,19.0,30.36,ENE,66,0.0,-999.0,47,-99.99,,,0.00,weatherlink.com 1.10,2013-11-05 04:21:00,
2013-11-04 23:36:00,38.0,20.0,30.35,ENE,76,0.0,-999.0,48,-99.99,,,0.00,weatherlink.com 1.10,2013-11-05 04:36:00,
2013-11-04 23:51:00,37.9,20.0,30.36,ESE,113,1.0,-999.0,48,-99.99,,,0.00,weatherlink.com 1.10,2013-11-05 04:51:00,